createdAt,value
2019-05-07T00:01:42.332Z,77.96
2019-05-07T00:04:12.964Z,78.82
2019-05-07T00:06:43.749Z,79.21
2019-05-07T00:09:18.715Z,79.64
2019-05-07T00:11:49.617Z,79.96
2019-05-07T00:14:20.080Z,81.10
2019-05-07T00:16:53.297Z,81.87
2019-05-07T00:19:23.314Z,82.24
2019-05-07T00:21:58.030Z,81.78
2019-05-07T00:24:29.026Z,83.25
2019-05-07T00:26:59.737Z,83.69
2019-05-07T00:29:32.134Z,84.57
2019-05-07T00:32:03.088Z,85.61
2019-05-07T00:34:42.540Z,86.12
2019-05-07T00:37:28.195Z,86.85
2019-05-07T00:40:22.418Z,87.59
2019-05-07T00:43:15.151Z,87.94
2019-05-07T00:45:56.951Z,88.32
2019-05-07T00:48:36.776Z,88.89
2019-05-07T00:51:26.983Z,89.13
2019-05-07T00:54:02.709Z,89.30
2019-05-07T00:56:36.184Z,88.92
2019-05-07T00:59:06.732Z,89.16
2019-05-07T01:02:48.306Z,89.22
2019-05-07T01:05:23.073Z,89.08
2019-05-07T01:07:55.163Z,88.44
2019-05-07T01:10:25.625Z,89.07
2019-05-07T01:12:58.908Z,89.56
2019-05-07T01:15:31.558Z,89.81
2019-05-07T01:18:00.205Z,90.06
2019-05-07T01:20:32.913Z,89.89
2019-05-07T01:23:03.427Z,90.02
2019-05-07T01:25:43.088Z,89.82
2019-05-07T01:28:19.514Z,90.59
2019-05-07T01:30:49.831Z,90.75
2019-05-07T01:33:34.510Z,91.07
2019-05-07T01:36:15.084Z,90.76
2019-05-07T01:38:45.541Z,91.31
2019-05-07T01:41:19.338Z,91.37
2019-05-07T01:43:49.632Z,91.46
2019-05-07T01:46:20.161Z,91.22
2019-05-07T01:48:53.566Z,91.94
2019-05-07T01:51:23.283Z,91.86
2019-05-07T01:53:53.915Z,92.13
2019-05-07T01:56:27.423Z,92.29
2019-05-07T01:59:04.589Z,92.87
2019-05-07T02:01:35.841Z,92.32
2019-05-07T02:04:15.823Z,92.88
2019-05-07T02:07:04.981Z,92.61
2019-05-07T02:09:42.537Z,93.29
2019-05-07T02:12:18.003Z,93.91
2019-05-07T02:14:48.295Z,93.58
2019-05-07T02:17:18.836Z,93.10
2019-05-07T02:19:49.234Z,92.72
2019-05-07T02:22:19.654Z,93.30
2019-05-07T02:24:52.168Z,93.10
2019-05-07T02:27:22.313Z,93.42
2019-05-07T02:29:54.314Z,93.74
2019-05-07T02:32:24.785Z,93.97
2019-05-07T02:34:55.059Z,93.74
2019-05-07T02:37:47.204Z,93.66
2019-05-07T02:40:24.723Z,93.40
2019-05-07T02:42:56.629Z,93.73
2019-05-07T02:45:48.503Z,93.98
2019-05-07T02:48:25.014Z,94.39
2019-05-07T02:51:06.731Z,94.96
2019-05-07T02:53:55.482Z,95.48
2019-05-07T02:56:37.573Z,95.67
2019-05-07T02:59:08.008Z,96.03
2019-05-07T03:02:48.231Z,95.96
2019-05-07T03:05:18.733Z,95.86
2019-05-07T03:07:49.147Z,95.79
2019-05-07T03:10:23.311Z,95.00
2019-05-07T03:12:54.956Z,94.08
2019-05-07T03:15:25.610Z,93.48
2019-05-07T03:17:56.130Z,93.11
2019-05-07T03:20:33.488Z,93.20
2019-05-07T03:23:13.380Z,93.37
2019-05-07T03:26:22.873Z,93.18
2019-05-07T03:28:54.249Z,92.86
2019-05-07T03:31:36.203Z,92.62
2019-05-07T03:34:15.519Z,90.71
2019-05-07T03:36:48.572Z,90.10
2019-05-07T03:39:20.145Z,90.36
2019-05-07T03:41:53.586Z,90.65
2019-05-07T03:44:33.797Z,90.63
2019-05-07T03:47:43.594Z,90.69
2019-05-07T03:50:14.952Z,90.47
2019-05-07T03:52:45.969Z,90.43
2019-05-07T03:55:16.380Z,91.13
2019-05-07T03:57:46.756Z,91.32
2019-05-07T04:00:17.529Z,91.60
2019-05-07T04:02:52.700Z,91.21
2019-05-07T04:05:23.168Z,90.65
2019-05-07T04:07:54.137Z,90.84
2019-05-07T04:10:27.527Z,91.19
2019-05-07T04:12:57.701Z,91.08
2019-05-07T04:15:27.975Z,90.92
2019-05-07T04:17:58.547Z,91.41
2019-05-07T04:20:28.986Z,91.78
2019-05-07T04:22:59.747Z,92.07
2019-05-07T04:25:55.897Z,91.53
2019-05-07T04:28:54.305Z,91.65
2019-05-07T04:31:26.412Z,91.30
2019-05-07T04:33:59.016Z,91.88
2019-05-07T04:36:34.220Z,92.01
2019-05-07T04:39:06.895Z,92.54
2019-05-07T04:41:38.644Z,92.87
2019-05-07T04:44:09.344Z,92.69
2019-05-07T04:46:47.957Z,92.16
2019-05-07T04:49:23.799Z,91.72
2019-05-07T04:52:04.307Z,91.22
2019-05-07T04:54:34.618Z,90.78
2019-05-07T04:57:25.836Z,90.19
2019-05-07T05:03:12.861Z,89.17
2019-05-07T05:05:44.535Z,88.58
2019-05-07T05:08:23.369Z,87.64
2019-05-07T05:10:54.282Z,86.84
2019-05-07T05:13:25.229Z,85.27
2019-05-07T05:16:02.016Z,84.25
2019-05-07T05:18:37.980Z,81.96
2019-05-07T05:21:19.067Z,81.29
2019-05-07T05:24:12.557Z,80.40
2019-05-07T05:26:43.632Z,77.37
2019-05-07T05:29:14.486Z,74.13
2019-05-07T05:31:48.021Z,71.47
2019-05-07T05:34:18.266Z,73.00
2019-05-07T05:36:48.981Z,73.76
2019-05-07T05:39:19.527Z,71.06
2019-05-07T05:41:58.686Z,72.45
2019-05-07T05:44:32.996Z,70.53
2019-05-07T05:47:03.956Z,71.36
2019-05-07T05:49:34.271Z,69.22
2019-05-07T05:52:24.008Z,69.19
2019-05-07T05:54:58.885Z,67.73
2019-05-07T05:57:48.169Z,66.80
2019-05-07T06:00:40.053Z,64.40
2019-05-07T06:03:32.094Z,63.71
2019-05-07T06:06:15.161Z,64.49
2019-05-07T06:09:02.483Z,63.34
2019-05-07T06:11:46.584Z,61.57
2019-05-07T06:14:33.044Z,62.45
2019-05-07T06:17:16.054Z,62.00
2019-05-07T06:19:56.698Z,60.46
2019-05-07T06:22:45.682Z,61.34
2019-05-07T06:25:24.812Z,62.86
2019-05-07T06:27:53.454Z,59.92
2019-05-07T06:30:24.102Z,56.43
2019-05-07T06:32:54.486Z,56.63
2019-05-07T06:35:24.758Z,57.56
2019-05-07T06:37:56.967Z,57.91
2019-05-07T06:40:42.486Z,58.35
2019-05-07T06:43:33.092Z,61.28
2019-05-07T06:46:04.072Z,59.16
2019-05-07T06:48:43.607Z,60.45
2019-05-07T06:51:14.256Z,59.26
2019-05-07T06:53:45.626Z,57.34
2019-05-07T06:56:17.325Z,57.22
2019-05-07T06:59:02.257Z,58.54
2019-05-07T07:03:02.029Z,56.05
2019-05-07T07:06:02.970Z,56.08
2019-05-07T07:08:41.870Z,57.57
2019-05-07T07:11:18.733Z,55.50
2019-05-07T07:13:52.351Z,55.73
2019-05-07T07:16:25.599Z,54.86
2019-05-07T07:18:56.270Z,55.51
2019-05-07T07:21:26.512Z,54.90
2019-05-07T07:23:57.259Z,54.95
2019-05-07T07:26:27.716Z,55.10
2019-05-07T07:29:02.008Z,55.02
2019-05-07T07:31:46.471Z,54.43
2019-05-07T07:34:22.558Z,52.31
2019-05-07T07:37:06.069Z,53.60
2019-05-07T07:39:32.677Z,52.66
2019-05-07T07:42:04.257Z,53.83
2019-05-07T07:44:35.895Z,52.69
2019-05-07T07:47:07.043Z,53.55
2019-05-07T07:49:37.649Z,52.46
2019-05-07T07:52:12.195Z,53.31
2019-05-07T07:54:46.181Z,54.38
2019-05-07T07:57:36.425Z,52.57
2019-05-07T08:00:29.769Z,53.21
2019-05-07T08:03:06.235Z,51.93
2019-05-07T08:05:36.765Z,51.81
2019-05-07T08:08:07.383Z,51.55
2019-05-07T08:10:38.261Z,50.13
2019-05-07T08:13:08.701Z,50.24
2019-05-07T08:15:39.915Z,51.00
2019-05-07T08:18:19.384Z,50.71
2019-05-07T08:20:53.173Z,49.99
2019-05-07T08:23:23.913Z,51.04
2019-05-07T08:25:54.706Z,53.63
2019-05-07T08:28:25.203Z,53.94
2019-05-07T08:31:13.576Z,55.09
2019-05-07T08:34:02.105Z,54.16
2019-05-07T08:36:33.215Z,55.36
2019-05-07T08:39:07.619Z,57.13
2019-05-07T08:41:38.521Z,55.93
2019-05-07T08:44:15.589Z,54.92
2019-05-07T08:47:12.935Z,54.67
2019-05-07T08:49:43.648Z,54.88
2019-05-07T08:52:14.122Z,54.68
2019-05-07T08:54:44.480Z,55.11
2019-05-07T08:57:15.766Z,56.57
2019-05-07T09:02:54.351Z,54.38
2019-05-07T09:05:27.880Z,53.83
2019-05-07T09:07:59.696Z,53.50
2019-05-07T09:10:32.479Z,52.33
2019-05-07T09:13:05.182Z,49.59
2019-05-07T09:15:36.768Z,51.12
2019-05-07T09:18:07.709Z,51.77
2019-05-07T09:20:38.402Z,48.70
2019-05-07T09:23:12.719Z,48.49
2019-05-07T09:25:49.070Z,50.72
2019-05-07T09:28:23.739Z,50.27
2019-05-07T09:31:16.889Z,48.93
2019-05-07T09:33:49.233Z,46.45
2019-05-07T09:36:42.465Z,48.50
2019-05-07T09:39:13.167Z,49.09
2019-05-07T09:41:46.938Z,50.75
2019-05-07T09:44:22.169Z,50.72
2019-05-07T09:46:55.565Z,49.46
2019-05-07T09:49:33.672Z,49.81
2019-05-07T09:52:19.914Z,47.94
2019-05-07T09:55:13.794Z,48.09
2019-05-07T09:57:42.376Z,49.34
2019-05-07T10:00:33.739Z,49.29
2019-05-07T10:03:08.226Z,50.61
2019-05-07T10:05:45.392Z,49.08
2019-05-07T10:08:31.797Z,50.02
2019-05-07T10:11:16.780Z,50.01
2019-05-07T10:14:18.618Z,48.92
2019-05-07T10:17:02.720Z,48.93
2019-05-07T10:19:41.754Z,47.35
2019-05-07T10:22:38.357Z,46.69
2019-05-07T10:25:12.242Z,45.87
2019-05-07T10:27:43.091Z,47.00
2019-05-07T10:30:17.261Z,44.70
2019-05-07T10:32:47.822Z,43.43
2019-05-07T10:35:25.850Z,42.76
2019-05-07T10:37:56.451Z,42.05
2019-05-07T10:40:27.597Z,42.08
2019-05-07T10:43:00.568Z,41.71
2019-05-07T10:45:57.156Z,42.72
2019-05-07T10:48:36.992Z,41.08
2019-05-07T10:51:07.395Z,41.58
2019-05-07T10:53:38.332Z,41.58
2019-05-07T10:56:09.293Z,41.27
2019-05-07T10:58:41.630Z,41.70
2019-05-07T11:02:51.915Z,44.90
2019-05-07T11:05:22.399Z,43.51
2019-05-07T11:07:53.871Z,42.80
2019-05-07T11:10:24.407Z,41.29
2019-05-07T11:13:02.441Z,41.60
2019-05-07T11:15:35.742Z,40.71
2019-05-07T11:18:21.724Z,42.09
2019-05-07T11:20:53.495Z,40.87
2019-05-07T11:23:24.047Z,41.99
2019-05-07T11:25:54.501Z,40.61
2019-05-07T11:28:27.504Z,39.76
2019-05-07T11:31:33.149Z,38.97
2019-05-07T11:34:03.634Z,38.91
2019-05-07T11:36:34.471Z,39.03
2019-05-07T11:39:07.967Z,39.42
2019-05-07T11:42:07.298Z,39.19
2019-05-07T11:44:42.386Z,38.16
2019-05-07T11:47:28.339Z,37.41
2019-05-07T11:50:19.506Z,38.09
2019-05-07T11:53:00.186Z,38.41
2019-05-07T11:55:32.544Z,38.96
2019-05-07T11:58:09.634Z,39.84
2019-05-07T12:00:48.032Z,40.43
2019-05-07T12:03:33.111Z,39.08
2019-05-07T12:06:07.576Z,39.25
2019-05-07T12:08:52.150Z,38.91
2019-05-07T12:11:23.222Z,39.17
2019-05-07T12:13:53.561Z,40.80
2019-05-07T12:16:24.564Z,39.79
2019-05-07T12:18:55.783Z,40.36
2019-05-07T12:21:26.613Z,41.19
2019-05-07T12:24:02.157Z,40.23
2019-05-07T12:26:34.077Z,39.39
2019-05-07T12:29:07.884Z,41.61
2019-05-07T12:32:02.952Z,39.72
2019-05-07T12:34:44.367Z,38.42
2019-05-07T12:37:22.849Z,38.36
2019-05-07T12:39:56.426Z,40.29
2019-05-07T12:42:30.178Z,39.40
2019-05-07T12:45:02.415Z,38.73
2019-05-07T12:47:32.853Z,38.49
2019-05-07T12:50:04.919Z,37.31
2019-05-07T12:52:45.119Z,37.04
2019-05-07T12:55:23.118Z,36.93
2019-05-07T12:57:53.877Z,36.97
2019-05-07T13:04:22.702Z,37.75
2019-05-07T13:07:11.812Z,37.73
2019-05-07T13:09:44.214Z,36.58
2019-05-07T13:12:14.737Z,38.34
2019-05-07T13:14:45.633Z,37.53
2019-05-07T13:17:17.014Z,35.56
2019-05-07T13:19:47.931Z,36.73
2019-05-07T13:22:18.700Z,36.57
2019-05-07T13:24:52.931Z,37.37
2019-05-07T13:27:32.715Z,36.65
2019-05-07T13:30:16.482Z,37.39
2019-05-07T13:33:02.586Z,38.90
2019-05-07T13:35:44.362Z,37.10
2019-05-07T13:38:45.709Z,37.22
2019-05-07T13:41:37.599Z,37.57
2019-05-07T13:44:31.880Z,37.09
2019-05-07T13:47:21.876Z,38.18
2019-05-07T13:49:54.011Z,39.22
2019-05-07T13:52:26.050Z,41.56
2019-05-07T13:54:59.077Z,39.23
2019-05-07T13:57:29.749Z,39.15
2019-05-07T14:00:12.849Z,39.19
2019-05-07T14:02:46.448Z,40.13
2019-05-07T14:05:18.167Z,38.40
2019-05-07T14:07:49.033Z,38.93
2019-05-07T14:10:20.649Z,37.42
2019-05-07T14:12:52.160Z,39.41
2019-05-07T14:15:23.267Z,38.64
2019-05-07T14:17:55.083Z,39.12
2019-05-07T14:20:25.489Z,37.47
2019-05-07T14:22:56.094Z,35.85
2019-05-07T14:25:26.658Z,35.30
2019-05-07T14:27:58.904Z,36.30
2019-05-07T14:30:29.351Z,35.38
2019-05-07T14:33:06.054Z,37.16
2019-05-07T14:35:47.286Z,37.10
2019-05-07T14:38:25.142Z,37.69
2019-05-07T14:40:55.802Z,39.51
2019-05-07T14:43:43.556Z,39.43
2019-05-07T14:46:15.809Z,38.79
2019-05-07T14:48:46.511Z,39.17
2019-05-07T14:51:22.066Z,38.82
2019-05-07T14:53:53.881Z,38.77
2019-05-07T14:56:24.390Z,38.83
2019-05-07T14:58:55.120Z,38.44
2019-05-07T15:03:22.954Z,37.90
2019-05-07T15:05:57.107Z,38.34
2019-05-07T15:08:32.363Z,37.58
2019-05-07T15:11:02.888Z,37.97
2019-05-07T15:13:33.511Z,37.01
2019-05-07T15:16:04.342Z,38.36
2019-05-07T15:18:55.475Z,38.13
2019-05-07T15:21:26.618Z,38.51
2019-05-07T15:24:02.223Z,39.17
2019-05-07T15:26:41.924Z,39.48
2019-05-07T15:29:22.722Z,39.65
2019-05-07T15:32:07.048Z,38.77
2019-05-07T15:34:37.510Z,39.45
2019-05-07T15:37:07.911Z,38.22
2019-05-07T15:39:38.582Z,36.95
2019-05-07T15:42:09.295Z,38.51
2019-05-07T15:44:40.183Z,38.45
2019-05-07T15:47:18.762Z,38.31
2019-05-07T15:49:49.514Z,39.42
2019-05-07T15:52:42.826Z,37.73
2019-05-07T15:55:13.751Z,36.34
2019-05-07T15:57:44.710Z,37.95
2019-05-07T16:00:21.787Z,37.84
2019-05-07T16:02:56.476Z,38.22
2019-05-07T16:05:26.728Z,37.42
2019-05-07T16:07:57.636Z,39.17
2019-05-07T16:10:28.174Z,38.03
2019-05-07T16:12:58.877Z,38.43
2019-05-07T16:15:31.806Z,39.06
2019-05-07T16:18:05.596Z,39.25
2019-05-07T16:20:39.632Z,38.14
2019-05-07T16:23:14.989Z,38.77
2019-05-07T16:25:42.248Z,41.07
2019-05-07T16:28:13.035Z,37.74
2019-05-07T16:30:44.238Z,38.08
2019-05-07T16:33:16.743Z,40.09
2019-05-07T16:35:49.234Z,38.55
2019-05-07T16:38:23.694Z,37.85
2019-05-07T16:40:54.355Z,38.86
2019-05-07T16:43:25.772Z,38.25
2019-05-07T16:45:57.998Z,38.24
2019-05-07T16:48:28.325Z,38.64
2019-05-07T16:51:04.295Z,38.81
2019-05-07T16:53:37.538Z,40.21
2019-05-07T16:56:07.834Z,39.62
2019-05-07T16:58:45.253Z,39.40
2019-05-07T17:03:02.235Z,38.82
2019-05-07T17:05:34.018Z,37.91
2019-05-07T17:08:24.229Z,38.08
2019-05-07T17:11:12.102Z,37.61
2019-05-07T17:13:43.127Z,36.65
2019-05-07T17:16:16.964Z,37.88
2019-05-07T17:18:47.880Z,36.17
2019-05-07T17:21:19.280Z,34.99
2019-05-07T17:23:51.935Z,34.92
2019-05-07T17:26:27.453Z,34.83
2019-05-07T17:28:58.395Z,36.41
2019-05-07T17:31:31.917Z,36.83
2019-05-07T17:36:45.767Z,36.84
2019-05-07T17:39:16.696Z,38.73
2019-05-07T17:41:47.237Z,39.52
2019-05-07T17:44:18.196Z,40.59
2019-05-07T17:46:51.760Z,40.78
2019-05-07T17:49:22.334Z,41.86
2019-05-07T17:51:52.981Z,41.91
2019-05-07T17:54:29.263Z,42.83
2019-05-07T17:57:01.832Z,43.19
2019-05-07T17:59:32.261Z,43.27
2019-05-07T18:02:29.560Z,43.94
2019-05-07T18:05:03.095Z,43.56
2019-05-07T18:07:45.362Z,44.22
2019-05-07T18:10:18.429Z,44.34
2019-05-07T18:12:53.718Z,45.10
2019-05-07T18:15:29.785Z,45.50
2019-05-07T18:18:08.349Z,46.60
2019-05-07T18:20:39.613Z,47.38
2019-05-07T18:23:16.420Z,48.04
2019-05-07T18:25:45.000Z,48.06
2019-05-07T18:28:24.828Z,47.26
2019-05-07T18:31:02.059Z,47.13
2019-05-07T18:36:31.665Z,48.73
2019-05-07T18:39:03.703Z,48.07
2019-05-07T18:41:34.259Z,49.15
2019-05-07T18:44:16.194Z,49.20
2019-05-07T18:46:52.684Z,49.35
2019-05-07T18:49:28.965Z,50.13
2019-05-07T18:52:08.894Z,51.10
2019-05-07T18:54:48.256Z,50.44
2019-05-07T18:57:19.433Z,51.44
2019-05-07T19:02:56.783Z,55.15
2019-05-07T19:05:27.370Z,56.59
2019-05-07T19:08:07.523Z,57.45
2019-05-07T19:10:33.423Z,57.70
2019-05-07T19:13:03.990Z,58.96
2019-05-07T19:15:35.790Z,59.43
2019-05-07T19:18:06.089Z,60.05
2019-05-07T19:20:36.749Z,60.48
2019-05-07T19:23:07.377Z,61.67
2019-05-07T19:25:38.147Z,62.08
2019-05-07T19:28:11.949Z,61.97
2019-05-07T19:30:42.037Z,62.17
2019-05-07T19:33:12.930Z,62.14
2019-05-07T19:35:43.296Z,61.88
2019-05-07T19:38:13.661Z,62.17
2019-05-07T19:40:47.173Z,63.50
2019-05-07T19:43:18.972Z,63.76
2019-05-07T19:45:49.441Z,63.94
2019-05-07T19:48:19.850Z,63.11
2019-05-07T19:50:50.148Z,62.95
2019-05-07T19:53:23.292Z,63.49
2019-05-07T19:56:13.175Z,64.18
2019-05-07T19:58:43.887Z,64.79
2019-05-07T20:01:22.778Z,64.63
2019-05-07T20:03:53.113Z,64.92
2019-05-07T20:06:32.776Z,65.54
2019-05-07T20:09:12.096Z,66.31
2019-05-07T20:11:45.593Z,66.32
2019-05-07T20:14:16.151Z,65.97
2019-05-07T20:16:47.733Z,66.65
2019-05-07T20:19:19.423Z,66.07
2019-05-07T20:21:55.384Z,65.97
2019-05-07T20:24:32.947Z,66.99
2019-05-07T20:27:03.227Z,68.13
2019-05-07T20:29:33.771Z,68.45
2019-05-07T20:32:08.210Z,69.49
2019-05-07T20:34:38.781Z,68.98
2019-05-07T20:37:12.925Z,68.14
2019-05-07T20:39:47.841Z,68.39
2019-05-07T20:42:19.468Z,69.13
2019-05-07T20:44:54.026Z,68.36
2019-05-07T20:47:32.560Z,68.46
2019-05-07T20:50:06.049Z,68.72
2019-05-07T20:52:41.749Z,68.73
2019-05-07T20:55:34.267Z,68.64
2019-05-07T20:58:05.139Z,68.42
2019-05-07T21:03:20.241Z,68.00
2019-05-07T21:05:53.063Z,68.38
2019-05-07T21:08:23.789Z,68.86
2019-05-07T21:10:54.201Z,69.38
2019-05-07T21:13:31.093Z,69.26
2019-05-07T21:15:57.208Z,69.78
2019-05-07T21:18:28.306Z,69.55
2019-05-07T21:20:59.176Z,69.06
2019-05-07T21:23:32.887Z,68.80
2019-05-07T21:26:07.526Z,68.34
2019-05-07T21:28:38.593Z,68.48
2019-05-07T21:31:09.096Z,68.54
2019-05-07T21:33:39.805Z,68.70
2019-05-07T21:36:12.142Z,69.48
2019-05-07T21:38:42.709Z,69.85
2019-05-07T21:41:13.785Z,70.68
2019-05-07T21:43:46.113Z,71.89
2019-05-07T21:46:16.141Z,72.21
2019-05-07T21:48:46.647Z,72.50
2019-05-07T21:51:17.193Z,73.65
2019-05-07T21:53:55.503Z,74.33
2019-05-07T21:56:45.099Z,75.08
2019-05-07T21:59:18.230Z,74.09
2019-05-07T22:01:52.702Z,73.02
2019-05-07T22:04:23.647Z,72.33
2019-05-07T22:06:54.137Z,72.63
2019-05-07T22:09:29.172Z,73.18
2019-05-07T22:12:00.233Z,73.59
2019-05-07T22:14:32.816Z,73.66
2019-05-07T22:17:04.426Z,73.96
2019-05-07T22:19:38.178Z,74.35
2019-05-07T22:22:12.338Z,73.53
2019-05-07T22:24:44.235Z,73.47
2019-05-07T22:27:16.730Z,73.17
2019-05-07T22:29:47.589Z,74.02
2019-05-07T22:32:37.661Z,73.42
2019-05-07T22:35:27.673Z,74.02
2019-05-07T22:38:01.330Z,74.87
2019-05-07T22:40:36.343Z,75.76
2019-05-07T22:43:10.214Z,75.74
2019-05-07T22:45:44.019Z,75.79
2019-05-07T22:48:17.904Z,77.23
2019-05-07T22:50:51.924Z,78.43
2019-05-07T22:53:22.940Z,79.17
2019-05-07T22:55:56.337Z,78.95
2019-05-07T22:58:32.757Z,78.66
2019-05-07T23:03:44.855Z,79.32
2019-05-07T23:06:15.273Z,78.96
2019-05-07T23:08:45.906Z,78.42
2019-05-07T23:11:16.314Z,78.68
2019-05-07T23:13:47.385Z,78.59
2019-05-07T23:16:17.593Z,77.96
2019-05-07T23:18:50.557Z,77.20
2019-05-07T23:21:27.518Z,73.88
2019-05-07T23:24:08.242Z,72.67
2019-05-07T23:26:49.974Z,70.27
2019-05-07T23:29:16.197Z,67.87
2019-05-07T23:31:47.258Z,66.97
2019-05-07T23:34:28.606Z,66.24
2019-05-07T23:37:07.524Z,66.16
2019-05-07T23:39:46.166Z,66.05
2019-05-07T23:42:23.614Z,65.92
2019-05-07T23:44:54.126Z,66.02
2019-05-07T23:47:27.552Z,65.80
2019-05-07T23:50:02.031Z,65.63
2019-05-07T23:52:32.529Z,66.15
2019-05-07T23:55:04.271Z,66.42
2019-05-07T23:57:34.597Z,66.19
